N903LE KFAY-KTEB
Flight info
| Callsign | N903LE |
|---|---|
| Flight time | 2h 3m |
| Altitude | 9000 |
| Route | TAPPA T295 LOUIE BACKY KEVIA MAZIE/N0214F080 BOPLY/N0212F090 LIZZI PENNS STW |
| Aircraft | AEST/L-SDFGRY/S |
Departure
| Time | 2026-05-07 02:21 |
|---|---|
| Airport | Fayetteville Regional Airport - Grannis Field (KFAY) |
Arrival
| Time | 2026-05-07 04:25 |
|---|---|
| Airport | Teterboro Airport (KTEB) |
| Time | Latitude | Longitude | Altitude | Speed | Heading |
|---|---|---|---|---|---|
| 2026-05-07 02:10 | 34.99202 | -78.88445 | 212 ft | 0 kts | 49° |
| 2026-05-07 02:15 | 34.99204 | -78.88443 | 212 ft | 1 kts | 50° |
| 2026-05-07 02:15 | 34.99209 | -78.88426 | 206 ft | 3 kts | 84° |
| 2026-05-07 02:16 | 34.99207 | -78.88419 | 203 ft | 0 kts | 126° |
| 2026-05-07 02:16 | 34.99207 | -78.88418 | 202 ft | 1 kts | 126° |
| 2026-05-07 02:16 | 34.99192 | -78.88395 | 201 ft | 4 kts | 148° |
| 2026-05-07 02:16 | 34.99161 | -78.88376 | 194 ft | 8 kts | 143° |
| 2026-05-07 02:17 | 34.99116 | -78.88358 | 201 ft | 7 kts | 208° |
| 2026-05-07 02:17 | 34.99076 | -78.88387 | 194 ft | 6 kts | 213° |
| 2026-05-07 02:17 | 34.99036 | -78.88416 | 194 ft | 7 kts | 210° |
| 2026-05-07 02:17 | 34.98991 | -78.88449 | 195 ft | 9 kts | 212° |
| 2026-05-07 02:18 | 34.98931 | -78.88493 | 195 ft | 11 kts | 212° |
| 2026-05-07 02:18 | 34.98864 | -78.88543 | 196 ft | 10 kts | 210° |
| 2026-05-07 02:18 | 34.98809 | -78.88583 | 202 ft | 9 kts | 212° |
| 2026-05-07 02:18 | 34.98758 | -78.88621 | 196 ft | 8 kts | 211° |
| 2026-05-07 02:19 | 34.98716 | -78.88652 | 197 ft | 6 kts | 211° |
| 2026-05-07 02:19 | 34.98678 | -78.88679 | 197 ft | 7 kts | 211° |
| 2026-05-07 02:19 | 34.98638 | -78.88707 | 198 ft | 7 kts | 198° |
| 2026-05-07 02:19 | 34.98601 | -78.88691 | 198 ft | 0 kts | 126° |
| 2026-05-07 02:20 | 34.98587 | -78.88663 | 201 ft | 12 kts | 119° |
| 2026-05-07 02:20 | 34.98594 | -78.88583 | 199 ft | 10 kts | 32° |
| 2026-05-07 02:20 | 34.98739 | -78.88479 | 195 ft | 55 kts | 31° |
| 2026-05-07 02:20 | 34.99257 | -78.88096 | 200 ft | 111 kts | 30° |
| 2026-05-07 02:21 | 34.99929 | -78.87584 | 429 ft | 123 kts | 34° |
| 2026-05-07 02:21 | 35.00703 | -78.86951 | 681 ft | 146 kts | 31° |
| 2026-05-07 02:21 | 35.01577 | -78.86269 | 993 ft | 156 kts | 30° |
| 2026-05-07 02:21 | 35.02518 | -78.85578 | 1358 ft | 160 kts | 29° |
| 2026-05-07 02:22 | 35.03457 | -78.84830 | 1706 ft | 163 kts | 29° |
| 2026-05-07 02:22 | 35.04509 | -78.84299 | 2129 ft | 165 kts | 13° |
| 2026-05-07 02:22 | 35.05565 | -78.83770 | 2552 ft | 167 kts | 22° |
| 2026-05-07 02:22 | 35.06610 | -78.83129 | 2974 ft | 168 kts | 23° |
| 2026-05-07 02:23 | 35.07637 | -78.82496 | 3397 ft | 162 kts | 24° |
| 2026-05-07 02:23 | 35.08612 | -78.81847 | 3789 ft | 158 kts | 24° |
| 2026-05-07 02:23 | 35.09560 | -78.81201 | 4192 ft | 154 kts | 21° |
| 2026-05-07 02:23 | 35.10497 | -78.80589 | 4573 ft | 151 kts | 20° |
| 2026-05-07 02:24 | 35.11421 | -78.79983 | 4926 ft | 150 kts | 20° |
| 2026-05-07 02:24 | 35.12320 | -78.79378 | 5276 ft | 149 kts | 18° |
| 2026-05-07 02:24 | 35.13230 | -78.78796 | 5625 ft | 147 kts | 18° |
| 2026-05-07 02:24 | 35.14129 | -78.78218 | 5964 ft | 146 kts | 17° |
| 2026-05-07 02:25 | 35.15026 | -78.77642 | 6301 ft | 146 kts | 17° |
| 2026-05-07 02:25 | 35.15919 | -78.77062 | 6619 ft | 145 kts | 17° |
| 2026-05-07 02:25 | 35.16814 | -78.76478 | 6939 ft | 146 kts | 17° |
| 2026-05-07 02:25 | 35.17695 | -78.75893 | 7240 ft | 143 kts | 16° |
| 2026-05-07 02:26 | 35.18565 | -78.75319 | 7501 ft | 142 kts | 15° |
| 2026-05-07 02:26 | 35.19439 | -78.74749 | 7765 ft | 143 kts | 15° |
| 2026-05-07 02:26 | 35.20317 | -78.74172 | 8029 ft | 143 kts | 15° |
| 2026-05-07 02:26 | 35.21191 | -78.73597 | 8285 ft | 142 kts | 14° |
| 2026-05-07 02:27 | 35.22065 | -78.73018 | 8512 ft | 144 kts | 14° |
| 2026-05-07 02:27 | 35.22964 | -78.72438 | 8711 ft | 147 kts | 14° |
| 2026-05-07 02:27 | 35.23882 | -78.71856 | 8913 ft | 150 kts | 14° |
| 2026-05-07 02:27 | 35.24831 | -78.71255 | 9010 ft | 159 kts | 15° |
| 2026-05-07 02:28 | 35.25863 | -78.70603 | 9007 ft | 175 kts | 17° |
| 2026-05-07 02:28 | 35.26969 | -78.69886 | 8994 ft | 185 kts | 18° |
| 2026-05-07 02:28 | 35.28130 | -78.69104 | 8994 ft | 196 kts | 19° |
| 2026-05-07 02:28 | 35.29341 | -78.68281 | 8990 ft | 203 kts | 20° |
| 2026-05-07 02:29 | 35.30597 | -78.67434 | 8989 ft | 209 kts | 20° |
| 2026-05-07 02:29 | 35.31893 | -78.66572 | 8984 ft | 214 kts | 19° |
| 2026-05-07 02:29 | 35.33206 | -78.65704 | 8989 ft | 216 kts | 19° |
| 2026-05-07 02:29 | 35.34533 | -78.64825 | 8990 ft | 218 kts | 20° |
| 2026-05-07 02:30 | 35.35878 | -78.63934 | 8987 ft | 221 kts | 19° |
| 2026-05-07 02:30 | 35.37236 | -78.63041 | 8991 ft | 222 kts | 20° |
| 2026-05-07 02:30 | 35.38597 | -78.62146 | 8991 ft | 223 kts | 20° |
| 2026-05-07 02:30 | 35.39959 | -78.61242 | 8992 ft | 223 kts | 20° |
| 2026-05-07 02:31 | 35.41326 | -78.60327 | 8990 ft | 224 kts | 20° |
| 2026-05-07 02:31 | 35.42681 | -78.59429 | 8989 ft | 225 kts | 20° |
| 2026-05-07 02:31 | 35.44062 | -78.58519 | 8983 ft | 225 kts | 20° |
| 2026-05-07 02:31 | 35.45437 | -78.57609 | 8985 ft | 224 kts | 20° |
| 2026-05-07 02:32 | 35.46808 | -78.56698 | 8984 ft | 224 kts | 20° |
| 2026-05-07 02:32 | 35.48180 | -78.55784 | 8963 ft | 225 kts | 20° |
| 2026-05-07 02:32 | 35.49558 | -78.54874 | 8961 ft | 225 kts | 20° |
| 2026-05-07 02:32 | 35.50934 | -78.53958 | 8962 ft | 225 kts | 20° |
| 2026-05-07 02:33 | 35.52308 | -78.53040 | 8962 ft | 225 kts | 20° |
| 2026-05-07 02:33 | 35.53686 | -78.52128 | 8960 ft | 225 kts | 20° |
| 2026-05-07 02:33 | 35.55075 | -78.51214 | 8951 ft | 228 kts | 20° |
| 2026-05-07 02:33 | 35.56473 | -78.50287 | 8966 ft | 228 kts | 20° |
| 2026-05-07 02:34 | 35.57873 | -78.49356 | 8964 ft | 230 kts | 20° |
| 2026-05-07 02:34 | 35.59275 | -78.48424 | 8962 ft | 228 kts | 20° |
| 2026-05-07 02:34 | 35.60664 | -78.47494 | 8955 ft | 227 kts | 20° |
| 2026-05-07 02:34 | 35.62054 | -78.46561 | 8969 ft | 228 kts | 20° |
| 2026-05-07 02:35 | 35.63458 | -78.45626 | 8969 ft | 231 kts | 20° |
| 2026-05-07 02:35 | 35.64876 | -78.44682 | 8963 ft | 233 kts | 20° |
| 2026-05-07 02:35 | 35.66301 | -78.43734 | 8963 ft | 233 kts | 20° |
| 2026-05-07 02:35 | 35.67727 | -78.42790 | 8961 ft | 233 kts | 20° |
| 2026-05-07 02:36 | 35.69157 | -78.41839 | 8978 ft | 234 kts | 21° |
| 2026-05-07 02:36 | 35.70597 | -78.40886 | 8960 ft | 236 kts | 21° |
| 2026-05-07 02:36 | 35.72036 | -78.39925 | 8949 ft | 236 kts | 21° |
| 2026-05-07 02:36 | 35.73475 | -78.38953 | 8961 ft | 236 kts | 21° |
| 2026-05-07 02:37 | 35.74916 | -78.37980 | 8964 ft | 236 kts | 21° |
| 2026-05-07 02:37 | 35.76354 | -78.37010 | 8967 ft | 235 kts | 21° |
| 2026-05-07 02:37 | 35.77792 | -78.36044 | 8964 ft | 236 kts | 21° |
| 2026-05-07 02:37 | 35.79231 | -78.35083 | 8966 ft | 236 kts | 21° |
| 2026-05-07 02:38 | 35.80674 | -78.34127 | 8971 ft | 236 kts | 21° |
| 2026-05-07 02:38 | 35.82117 | -78.33165 | 8972 ft | 236 kts | 21° |
| 2026-05-07 02:38 | 35.83074 | -78.32523 | 8966 ft | 236 kts | 21° |
| 2026-05-07 02:38 | 35.84515 | -78.31554 | 8965 ft | 236 kts | 21° |
| 2026-05-07 02:39 | 35.85956 | -78.30583 | 8967 ft | 236 kts | 21° |
| 2026-05-07 02:39 | 35.87393 | -78.29615 | 8982 ft | 236 kts | 21° |
| 2026-05-07 02:39 | 35.88835 | -78.28645 | 8989 ft | 236 kts | 21° |
| 2026-05-07 02:39 | 35.90280 | -78.27677 | 8987 ft | 236 kts | 21° |
| 2026-05-07 02:40 | 35.91726 | -78.26713 | 8989 ft | 237 kts | 21° |
| 2026-05-07 02:40 | 35.93173 | -78.25748 | 8999 ft | 237 kts | 21° |
| 2026-05-07 02:40 | 35.94624 | -78.24776 | 8990 ft | 238 kts | 21° |
| 2026-05-07 02:40 | 35.96075 | -78.23801 | 8987 ft | 238 kts | 21° |
| 2026-05-07 02:41 | 35.97524 | -78.22826 | 8990 ft | 237 kts | 21° |
| 2026-05-07 02:41 | 35.98968 | -78.21850 | 8991 ft | 237 kts | 21° |
| 2026-05-07 02:41 | 36.00418 | -78.20865 | 8989 ft | 238 kts | 21° |
| 2026-05-07 02:41 | 36.01867 | -78.19886 | 8989 ft | 237 kts | 21° |
| 2026-05-07 02:42 | 36.03313 | -78.18910 | 8989 ft | 237 kts | 21° |
| 2026-05-07 02:42 | 36.04760 | -78.17932 | 8987 ft | 238 kts | 21° |
| 2026-05-07 02:42 | 36.06212 | -78.16960 | 8985 ft | 237 kts | 21° |
| 2026-05-07 02:42 | 36.07660 | -78.15984 | 8982 ft | 237 kts | 21° |
| 2026-05-07 02:43 | 36.09109 | -78.15000 | 8986 ft | 237 kts | 21° |
| 2026-05-07 02:43 | 36.10560 | -78.14021 | 8982 ft | 237 kts | 21° |
| 2026-05-07 02:43 | 36.12007 | -78.13046 | 8980 ft | 237 kts | 21° |
| 2026-05-07 02:43 | 36.13455 | -78.12068 | 8977 ft | 238 kts | 21° |
| 2026-05-07 02:44 | 36.14888 | -78.11102 | 8978 ft | 238 kts | 21° |
| 2026-05-07 02:44 | 36.16358 | -78.10111 | 8988 ft | 238 kts | 21° |
| 2026-05-07 02:44 | 36.17794 | -78.09146 | 8975 ft | 238 kts | 21° |
| 2026-05-07 02:44 | 36.19249 | -78.08164 | 8970 ft | 238 kts | 22° |
| 2026-05-07 02:45 | 36.20697 | -78.07176 | 8970 ft | 238 kts | 22° |
| 2026-05-07 02:45 | 36.22145 | -78.06183 | 8969 ft | 237 kts | 22° |
| 2026-05-07 02:45 | 36.23590 | -78.05195 | 8967 ft | 237 kts | 22° |
| 2026-05-07 02:45 | 36.25036 | -78.04212 | 8961 ft | 237 kts | 21° |
| 2026-05-07 02:46 | 36.26484 | -78.03231 | 8961 ft | 237 kts | 21° |
| 2026-05-07 02:46 | 36.27932 | -78.02252 | 8963 ft | 237 kts | 21° |
| 2026-05-07 02:46 | 36.29381 | -78.01270 | 8960 ft | 237 kts | 21° |
| 2026-05-07 02:46 | 36.30830 | -78.00289 | 8962 ft | 237 kts | 21° |
| 2026-05-07 02:47 | 36.32278 | -77.99310 | 8960 ft | 237 kts | 22° |
| 2026-05-07 02:47 | 36.33727 | -77.98329 | 8956 ft | 237 kts | 22° |
| 2026-05-07 02:47 | 36.35171 | -77.97341 | 8960 ft | 237 kts | 22° |
| 2026-05-07 02:47 | 36.36614 | -77.96351 | 8961 ft | 237 kts | 22° |
| 2026-05-07 02:48 | 36.38056 | -77.95366 | 8953 ft | 236 kts | 22° |
| 2026-05-07 02:48 | 36.39502 | -77.94385 | 8963 ft | 238 kts | 22° |
| 2026-05-07 02:48 | 36.40951 | -77.93400 | 8963 ft | 237 kts | 22° |
| 2026-05-07 02:48 | 36.42397 | -77.92413 | 8961 ft | 237 kts | 22° |
| 2026-05-07 02:49 | 36.43841 | -77.91426 | 8959 ft | 237 kts | 22° |
| 2026-05-07 02:49 | 36.45291 | -77.90440 | 8959 ft | 237 kts | 22° |
| 2026-05-07 02:49 | 36.46738 | -77.89448 | 8959 ft | 238 kts | 22° |
| 2026-05-07 02:49 | 36.48188 | -77.88457 | 8955 ft | 238 kts | 22° |
| 2026-05-07 02:50 | 36.49639 | -77.87471 | 8951 ft | 238 kts | 22° |
| 2026-05-07 02:50 | 36.51092 | -77.86485 | 8954 ft | 238 kts | 22° |
| 2026-05-07 02:50 | 36.52542 | -77.85493 | 8957 ft | 238 kts | 22° |
| 2026-05-07 02:50 | 36.53991 | -77.84496 | 8952 ft | 238 kts | 22° |
| 2026-05-07 02:51 | 36.55437 | -77.83502 | 8953 ft | 238 kts | 22° |
| 2026-05-07 02:51 | 36.56886 | -77.82509 | 8956 ft | 238 kts | 22° |
| 2026-05-07 02:51 | 36.58334 | -77.81516 | 8952 ft | 237 kts | 22° |
| 2026-05-07 02:51 | 36.59781 | -77.80526 | 8951 ft | 237 kts | 22° |
| 2026-05-07 02:52 | 36.61227 | -77.79530 | 8986 ft | 237 kts | 22° |
| 2026-05-07 02:52 | 36.62673 | -77.78534 | 8975 ft | 238 kts | 22° |
| 2026-05-07 02:52 | 36.64124 | -77.77543 | 8970 ft | 238 kts | 21° |
| 2026-05-07 02:52 | 36.65578 | -77.76549 | 8990 ft | 238 kts | 22° |
| 2026-05-07 02:53 | 36.67029 | -77.75555 | 8992 ft | 238 kts | 22° |
| 2026-05-07 02:53 | 36.68477 | -77.74562 | 8991 ft | 237 kts | 22° |
| 2026-05-07 02:53 | 36.69925 | -77.73569 | 8992 ft | 238 kts | 22° |
| 2026-05-07 02:53 | 36.71374 | -77.72575 | 8990 ft | 238 kts | 22° |
| 2026-05-07 02:54 | 36.72819 | -77.71577 | 8992 ft | 238 kts | 22° |
| 2026-05-07 02:54 | 36.74265 | -77.70577 | 8990 ft | 237 kts | 22° |
| 2026-05-07 02:54 | 36.75709 | -77.69584 | 8994 ft | 237 kts | 22° |
| 2026-05-07 02:54 | 36.77154 | -77.68588 | 8993 ft | 238 kts | 22° |
| 2026-05-07 02:55 | 36.78598 | -77.67588 | 8989 ft | 237 kts | 22° |
| 2026-05-07 02:55 | 36.80040 | -77.66592 | 8986 ft | 237 kts | 22° |
| 2026-05-07 02:55 | 36.81485 | -77.65597 | 8990 ft | 238 kts | 22° |
| 2026-05-07 02:55 | 36.82933 | -77.64602 | 8985 ft | 238 kts | 22° |
| 2026-05-07 02:56 | 36.84380 | -77.63604 | 8980 ft | 238 kts | 22° |
| 2026-05-07 02:56 | 36.85829 | -77.62603 | 8986 ft | 237 kts | 22° |
| 2026-05-07 02:56 | 36.87275 | -77.61606 | 8983 ft | 238 kts | 22° |
| 2026-05-07 02:56 | 36.88721 | -77.60609 | 8985 ft | 237 kts | 22° |
| 2026-05-07 02:57 | 36.90164 | -77.59611 | 8980 ft | 237 kts | 22° |
| 2026-05-07 02:57 | 36.91609 | -77.58609 | 8970 ft | 238 kts | 22° |
| 2026-05-07 02:57 | 36.93035 | -77.57616 | 8967 ft | 238 kts | 22° |
| 2026-05-07 02:57 | 36.94479 | -77.56612 | 8961 ft | 238 kts | 22° |
| 2026-05-07 02:58 | 36.95947 | -77.55594 | 8961 ft | 238 kts | 22° |
| 2026-05-07 02:58 | 36.97395 | -77.54594 | 8964 ft | 238 kts | 22° |
| 2026-05-07 02:58 | 36.98824 | -77.53604 | 8964 ft | 238 kts | 22° |
| 2026-05-07 02:58 | 37.00272 | -77.52599 | 8969 ft | 237 kts | 22° |
| 2026-05-07 02:59 | 37.01710 | -77.51605 | 9024 ft | 236 kts | 22° |
| 2026-05-07 02:59 | 37.03152 | -77.50607 | 9003 ft | 238 kts | 22° |
| 2026-05-07 02:59 | 37.04597 | -77.49599 | 9004 ft | 238 kts | 22° |
| 2026-05-07 02:59 | 37.06045 | -77.48592 | 9015 ft | 238 kts | 22° |
| 2026-05-07 03:00 | 37.07498 | -77.47588 | 9002 ft | 238 kts | 22° |
| 2026-05-07 03:00 | 37.08944 | -77.46584 | 9005 ft | 237 kts | 22° |
| 2026-05-07 03:00 | 37.10387 | -77.45578 | 9004 ft | 237 kts | 22° |
| 2026-05-07 03:00 | 37.11828 | -77.44569 | 9003 ft | 237 kts | 22° |
| 2026-05-07 03:01 | 37.13267 | -77.43563 | 9005 ft | 236 kts | 22° |
| 2026-05-07 03:01 | 37.14708 | -77.42561 | 9004 ft | 237 kts | 22° |
| 2026-05-07 03:01 | 37.16148 | -77.41553 | 9004 ft | 237 kts | 22° |
| 2026-05-07 03:01 | 37.17586 | -77.40551 | 9004 ft | 237 kts | 22° |
| 2026-05-07 03:02 | 37.19029 | -77.39555 | 9004 ft | 237 kts | 22° |
| 2026-05-07 03:02 | 37.20472 | -77.38551 | 9006 ft | 237 kts | 22° |
| 2026-05-07 03:02 | 37.21907 | -77.37544 | 9002 ft | 236 kts | 22° |
| 2026-05-07 03:02 | 37.23344 | -77.36538 | 9009 ft | 237 kts | 22° |
| 2026-05-07 03:03 | 37.24781 | -77.35531 | 9011 ft | 237 kts | 22° |
| 2026-05-07 03:03 | 37.26219 | -77.34525 | 9010 ft | 237 kts | 22° |
| 2026-05-07 03:03 | 37.27657 | -77.33522 | 9023 ft | 237 kts | 22° |
| 2026-05-07 03:03 | 37.29106 | -77.32512 | 9013 ft | 238 kts | 22° |
| 2026-05-07 03:04 | 37.30553 | -77.31495 | 9011 ft | 238 kts | 22° |
| 2026-05-07 03:04 | 37.32001 | -77.30480 | 9009 ft | 239 kts | 22° |
| 2026-05-07 03:04 | 37.33454 | -77.29466 | 9008 ft | 239 kts | 22° |
| 2026-05-07 03:04 | 37.34903 | -77.28447 | 9009 ft | 238 kts | 22° |
| 2026-05-07 03:05 | 37.36353 | -77.27429 | 9001 ft | 239 kts | 22° |
| 2026-05-07 03:05 | 37.37804 | -77.26407 | 9005 ft | 239 kts | 22° |
| 2026-05-07 03:05 | 37.39238 | -77.25403 | 9008 ft | 239 kts | 22° |
| 2026-05-07 03:05 | 37.40711 | -77.24367 | 9004 ft | 239 kts | 22° |
| 2026-05-07 03:06 | 37.42143 | -77.23355 | 9006 ft | 239 kts | 22° |
| 2026-05-07 03:06 | 37.43597 | -77.22334 | 8993 ft | 239 kts | 22° |
| 2026-05-07 03:06 | 37.45047 | -77.21317 | 9000 ft | 238 kts | 22° |
| 2026-05-07 03:06 | 37.46488 | -77.20301 | 8994 ft | 238 kts | 22° |
| 2026-05-07 03:07 | 37.47934 | -77.19280 | 8999 ft | 239 kts | 22° |
| 2026-05-07 03:07 | 37.49386 | -77.18264 | 9013 ft | 239 kts | 22° |
| 2026-05-07 03:07 | 37.50847 | -77.17245 | 8998 ft | 240 kts | 22° |
| 2026-05-07 03:07 | 37.52310 | -77.16215 | 8995 ft | 240 kts | 22° |
| 2026-05-07 03:08 | 37.53771 | -77.15187 | 8996 ft | 241 kts | 22° |
| 2026-05-07 03:08 | 37.55229 | -77.14154 | 8995 ft | 241 kts | 22° |
| 2026-05-07 03:08 | 37.56685 | -77.13115 | 8996 ft | 241 kts | 22° |
| 2026-05-07 03:08 | 37.58148 | -77.12084 | 8993 ft | 241 kts | 22° |
| 2026-05-07 03:09 | 37.59609 | -77.11053 | 8992 ft | 240 kts | 22° |
| 2026-05-07 03:09 | 37.61068 | -77.10023 | 8991 ft | 240 kts | 22° |
| 2026-05-07 03:09 | 37.62522 | -77.08997 | 8993 ft | 240 kts | 22° |
| 2026-05-07 03:09 | 37.63975 | -77.07968 | 8990 ft | 239 kts | 22° |
| 2026-05-07 03:10 | 37.65428 | -77.06937 | 8993 ft | 239 kts | 22° |
| 2026-05-07 03:10 | 37.66881 | -77.05909 | 8989 ft | 239 kts | 22° |
| 2026-05-07 03:10 | 37.68332 | -77.04880 | 8988 ft | 240 kts | 22° |
| 2026-05-07 03:10 | 37.69784 | -77.03849 | 8992 ft | 240 kts | 22° |
| 2026-05-07 03:11 | 37.71237 | -77.02819 | 8991 ft | 240 kts | 22° |
| 2026-05-07 03:11 | 37.72692 | -77.01788 | 8991 ft | 240 kts | 22° |
| 2026-05-07 03:11 | 37.74150 | -77.00755 | 8991 ft | 240 kts | 22° |
| 2026-05-07 03:11 | 37.75606 | -76.99722 | 8985 ft | 240 kts | 22° |
| 2026-05-07 03:12 | 37.77061 | -76.98689 | 8985 ft | 240 kts | 22° |
| 2026-05-07 03:12 | 37.78515 | -76.97659 | 8984 ft | 239 kts | 22° |
| 2026-05-07 03:12 | 37.79964 | -76.96627 | 8989 ft | 239 kts | 22° |
| 2026-05-07 03:12 | 37.81414 | -76.95591 | 8989 ft | 240 kts | 22° |
| 2026-05-07 03:13 | 37.82867 | -76.94554 | 8984 ft | 240 kts | 22° |
| 2026-05-07 03:13 | 37.84323 | -76.93523 | 8985 ft | 239 kts | 22° |
| 2026-05-07 03:13 | 37.85771 | -76.92493 | 8986 ft | 239 kts | 22° |
| 2026-05-07 03:13 | 37.87220 | -76.91456 | 8983 ft | 240 kts | 22° |
| 2026-05-07 03:14 | 37.88673 | -76.90419 | 8985 ft | 240 kts | 22° |
| 2026-05-07 03:14 | 37.90129 | -76.89378 | 8986 ft | 241 kts | 22° |
| 2026-05-07 03:14 | 37.93044 | -76.87304 | 8993 ft | 241 kts | 22° |
| 2026-05-07 03:15 | 37.94507 | -76.86264 | 8974 ft | 241 kts | 22° |
| 2026-05-07 03:15 | 37.95971 | -76.85224 | 8982 ft | 241 kts | 22° |
| 2026-05-07 03:15 | 37.97438 | -76.84205 | 8979 ft | 240 kts | 22° |
| 2026-05-07 03:15 | 37.98821 | -76.83016 | 8965 ft | 241 kts | 36° |
| 2026-05-07 03:16 | 37.99929 | -76.81414 | 8981 ft | 244 kts | 52° |
| 2026-05-07 03:16 | 38.00753 | -76.79519 | 8989 ft | 247 kts | 60° |
| 2026-05-07 03:16 | 38.01618 | -76.77622 | 8982 ft | 249 kts | 54° |
| 2026-05-07 03:16 | 38.02649 | -76.75855 | 8981 ft | 250 kts | 46° |
| 2026-05-07 03:17 | 38.03832 | -76.74243 | 8971 ft | 249 kts | 40° |
| 2026-05-07 03:17 | 38.05085 | -76.72730 | 8950 ft | 249 kts | 38° |
| 2026-05-07 03:17 | 38.06343 | -76.71223 | 8956 ft | 249 kts | 39° |
| 2026-05-07 03:17 | 38.07578 | -76.69700 | 8965 ft | 247 kts | 40° |
| 2026-05-07 03:18 | 38.08784 | -76.68145 | 8968 ft | 248 kts | 41° |
| 2026-05-07 03:18 | 38.09971 | -76.66551 | 8963 ft | 249 kts | 43° |
| 2026-05-07 03:18 | 38.11156 | -76.64949 | 8969 ft | 249 kts | 40° |
| 2026-05-07 03:18 | 38.12483 | -76.63603 | 8984 ft | 246 kts | 27° |
| 2026-05-07 03:19 | 38.13957 | -76.62443 | 8954 ft | 246 kts | 25° |
| 2026-05-07 03:19 | 38.15378 | -76.61297 | 8959 ft | 245 kts | 27° |
| 2026-05-07 03:19 | 38.16788 | -76.60077 | 8959 ft | 245 kts | 29° |
| 2026-05-07 03:19 | 38.18159 | -76.58795 | 8961 ft | 245 kts | 31° |
| 2026-05-07 03:20 | 38.19503 | -76.57462 | 8959 ft | 245 kts | 33° |
| 2026-05-07 03:20 | 38.20803 | -76.56056 | 8971 ft | 245 kts | 37° |
| 2026-05-07 03:20 | 38.22086 | -76.54611 | 8965 ft | 248 kts | 35° |
| 2026-05-07 03:20 | 38.23432 | -76.53243 | 8956 ft | 248 kts | 31° |
| 2026-05-07 03:21 | 38.24820 | -76.51960 | 8958 ft | 246 kts | 29° |
| 2026-05-07 03:21 | 38.26220 | -76.50705 | 8958 ft | 246 kts | 29° |
| 2026-05-07 03:21 | 38.27621 | -76.49451 | 8954 ft | 246 kts | 29° |
| 2026-05-07 03:21 | 38.29015 | -76.48189 | 8958 ft | 246 kts | 30° |
| 2026-05-07 03:22 | 38.30400 | -76.46910 | 8958 ft | 246 kts | 30° |
| 2026-05-07 03:22 | 38.31776 | -76.45610 | 8957 ft | 246 kts | 31° |
| 2026-05-07 03:22 | 38.33141 | -76.44294 | 8959 ft | 246 kts | 32° |
| 2026-05-07 03:22 | 38.34496 | -76.42950 | 8970 ft | 247 kts | 31° |
| 2026-05-07 03:23 | 38.35957 | -76.41795 | 8961 ft | 247 kts | 20° |
| 2026-05-07 03:23 | 38.37537 | -76.40975 | 8955 ft | 243 kts | 11° |
| 2026-05-07 03:23 | 38.39149 | -76.40376 | 8941 ft | 240 kts | 7° |
| 2026-05-07 03:23 | 38.40757 | -76.39827 | 8953 ft | 239 kts | 7° |
| 2026-05-07 03:24 | 38.42351 | -76.39255 | 8956 ft | 237 kts | 8° |
| 2026-05-07 03:24 | 38.43926 | -76.38621 | 8958 ft | 238 kts | 11° |
| 2026-05-07 03:24 | 38.45491 | -76.37925 | 8958 ft | 238 kts | 12° |
| 2026-05-07 03:24 | 38.47045 | -76.37188 | 8961 ft | 238 kts | 13° |
| 2026-05-07 03:25 | 38.48070 | -76.36684 | 8960 ft | 238 kts | 14° |
| 2026-05-07 03:25 | 38.49613 | -76.35904 | 8961 ft | 239 kts | 14° |
| 2026-05-07 03:25 | 38.51156 | -76.35111 | 8963 ft | 239 kts | 14° |
| 2026-05-07 03:25 | 38.52699 | -76.34321 | 8961 ft | 239 kts | 14° |
| 2026-05-07 03:26 | 38.54247 | -76.33541 | 8966 ft | 239 kts | 14° |
| 2026-05-07 03:26 | 38.55801 | -76.32772 | 8977 ft | 240 kts | 13° |
| 2026-05-07 03:26 | 38.57363 | -76.32006 | 8961 ft | 240 kts | 13° |
| 2026-05-07 03:26 | 38.58925 | -76.31245 | 8963 ft | 240 kts | 13° |
| 2026-05-07 03:27 | 38.60487 | -76.30485 | 8969 ft | 240 kts | 13° |
| 2026-05-07 03:27 | 38.62048 | -76.29720 | 8967 ft | 240 kts | 14° |
| 2026-05-07 03:27 | 38.63602 | -76.28933 | 8968 ft | 240 kts | 15° |
| 2026-05-07 03:27 | 38.65144 | -76.28115 | 8964 ft | 240 kts | 15° |
| 2026-05-07 03:28 | 38.66682 | -76.27272 | 8965 ft | 241 kts | 16° |
| 2026-05-07 03:28 | 38.68219 | -76.26414 | 8958 ft | 241 kts | 17° |
| 2026-05-07 03:28 | 38.69757 | -76.25558 | 8962 ft | 241 kts | 16° |
| 2026-05-07 03:28 | 38.71301 | -76.24716 | 8963 ft | 241 kts | 15° |
| 2026-05-07 03:29 | 38.72847 | -76.23886 | 8962 ft | 241 kts | 15° |
| 2026-05-07 03:29 | 38.74393 | -76.23067 | 8960 ft | 240 kts | 15° |
| 2026-05-07 03:29 | 38.75942 | -76.22251 | 8960 ft | 241 kts | 15° |
| 2026-05-07 03:29 | 38.77493 | -76.21429 | 8964 ft | 242 kts | 15° |
| 2026-05-07 03:30 | 38.79045 | -76.20598 | 8959 ft | 242 kts | 15° |
| 2026-05-07 03:30 | 38.80598 | -76.19771 | 8960 ft | 242 kts | 15° |
| 2026-05-07 03:30 | 38.82151 | -76.18940 | 8959 ft | 242 kts | 15° |
| 2026-05-07 03:30 | 38.83700 | -76.18109 | 8958 ft | 242 kts | 15° |
| 2026-05-07 03:31 | 38.85254 | -76.17274 | 8953 ft | 242 kts | 15° |
| 2026-05-07 03:31 | 38.86805 | -76.16440 | 8953 ft | 242 kts | 15° |
| 2026-05-07 03:31 | 38.88356 | -76.15605 | 8954 ft | 242 kts | 15° |
| 2026-05-07 03:31 | 38.89909 | -76.14770 | 8956 ft | 242 kts | 15° |
| 2026-05-07 03:32 | 38.91463 | -76.13930 | 8953 ft | 243 kts | 15° |
| 2026-05-07 03:32 | 38.93015 | -76.13087 | 8961 ft | 242 kts | 15° |
| 2026-05-07 03:32 | 38.94568 | -76.12252 | 8959 ft | 242 kts | 15° |
| 2026-05-07 03:32 | 38.96126 | -76.11420 | 8960 ft | 242 kts | 15° |
| 2026-05-07 03:33 | 38.97685 | -76.10580 | 8977 ft | 243 kts | 15° |
| 2026-05-07 03:33 | 38.99248 | -76.09740 | 8961 ft | 244 kts | 15° |
| 2026-05-07 03:33 | 39.00812 | -76.08898 | 8962 ft | 244 kts | 15° |
| 2026-05-07 03:33 | 39.02373 | -76.08054 | 8961 ft | 243 kts | 15° |
| 2026-05-07 03:34 | 39.03949 | -76.07269 | 8960 ft | 243 kts | 12° |
| 2026-05-07 03:34 | 39.05548 | -76.06579 | 8957 ft | 242 kts | 9° |
| 2026-05-07 03:34 | 39.07152 | -76.05934 | 8957 ft | 241 kts | 9° |
| 2026-05-07 03:34 | 39.08751 | -76.05278 | 8957 ft | 241 kts | 9° |
| 2026-05-07 03:35 | 39.10343 | -76.04612 | 8953 ft | 241 kts | 10° |
| 2026-05-07 03:35 | 39.11935 | -76.03942 | 8955 ft | 241 kts | 10° |
| 2026-05-07 03:35 | 39.13526 | -76.03266 | 8953 ft | 241 kts | 10° |
| 2026-05-07 03:35 | 39.15116 | -76.02586 | 8954 ft | 241 kts | 10° |
| 2026-05-07 03:36 | 39.16707 | -76.01906 | 8954 ft | 241 kts | 10° |
| 2026-05-07 03:36 | 39.18296 | -76.01224 | 8955 ft | 241 kts | 10° |
| 2026-05-07 03:36 | 39.19885 | -76.00541 | 8957 ft | 241 kts | 10° |
| 2026-05-07 03:36 | 39.21479 | -75.99857 | 8953 ft | 241 kts | 10° |
| 2026-05-07 03:37 | 39.23045 | -75.99181 | 8951 ft | 240 kts | 10° |
| 2026-05-07 03:37 | 39.24628 | -75.98498 | 8953 ft | 240 kts | 10° |
| 2026-05-07 03:37 | 39.26214 | -75.97823 | 8953 ft | 240 kts | 10° |
| 2026-05-07 03:37 | 39.27799 | -75.97143 | 8952 ft | 240 kts | 10° |
| 2026-05-07 03:38 | 39.29385 | -75.96460 | 8950 ft | 240 kts | 10° |
| 2026-05-07 03:38 | 39.30971 | -75.95779 | 8950 ft | 240 kts | 10° |
| 2026-05-07 03:38 | 39.32558 | -75.95099 | 8949 ft | 240 kts | 11° |
| 2026-05-07 03:38 | 39.34140 | -75.94414 | 8951 ft | 240 kts | 10° |
| 2026-05-07 03:39 | 39.35723 | -75.93732 | 8949 ft | 240 kts | 10° |
| 2026-05-07 03:39 | 39.37308 | -75.93051 | 8949 ft | 240 kts | 10° |
| 2026-05-07 03:39 | 39.38893 | -75.92370 | 8950 ft | 240 kts | 10° |
| 2026-05-07 03:39 | 39.40483 | -75.91681 | 8960 ft | 242 kts | 10° |
| 2026-05-07 03:40 | 39.42083 | -75.90985 | 8948 ft | 242 kts | 9° |
| 2026-05-07 03:40 | 39.43676 | -75.90278 | 8942 ft | 241 kts | 13° |
| 2026-05-07 03:40 | 39.45187 | -75.89325 | 8952 ft | 243 kts | 22° |
| 2026-05-07 03:40 | 39.46602 | -75.88094 | 8954 ft | 247 kts | 31° |
| 2026-05-07 03:41 | 39.47933 | -75.86669 | 8953 ft | 249 kts | 36° |
| 2026-05-07 03:41 | 39.49228 | -75.85161 | 8955 ft | 252 kts | 36° |
| 2026-05-07 03:41 | 39.50559 | -75.83676 | 8950 ft | 253 kts | 34° |
| 2026-05-07 03:41 | 39.51954 | -75.82296 | 8947 ft | 252 kts | 30° |
| 2026-05-07 03:42 | 39.53403 | -75.81020 | 8944 ft | 251 kts | 26° |
| 2026-05-07 03:42 | 39.54871 | -75.79808 | 8939 ft | 250 kts | 25° |
| 2026-05-07 03:42 | 39.56339 | -75.78613 | 8939 ft | 248 kts | 25° |
| 2026-05-07 03:42 | 39.57794 | -75.77412 | 8934 ft | 248 kts | 26° |
| 2026-05-07 03:43 | 39.59241 | -75.76198 | 8936 ft | 248 kts | 26° |
| 2026-05-07 03:43 | 39.60676 | -75.74973 | 8942 ft | 246 kts | 27° |
| 2026-05-07 03:43 | 39.62098 | -75.73725 | 8937 ft | 247 kts | 27° |
| 2026-05-07 03:43 | 39.63515 | -75.72469 | 8940 ft | 247 kts | 28° |
| 2026-05-07 03:44 | 39.64927 | -75.71201 | 8934 ft | 247 kts | 28° |
| 2026-05-07 03:44 | 39.66336 | -75.69921 | 8942 ft | 247 kts | 28° |
| 2026-05-07 03:44 | 39.67751 | -75.68652 | 8934 ft | 247 kts | 28° |
| 2026-05-07 03:44 | 39.69174 | -75.67399 | 8933 ft | 248 kts | 27° |
| 2026-05-07 03:45 | 39.70597 | -75.66151 | 8944 ft | 247 kts | 28° |
| 2026-05-07 03:45 | 39.72012 | -75.64891 | 8938 ft | 247 kts | 27° |
| 2026-05-07 03:45 | 39.73435 | -75.63637 | 8934 ft | 247 kts | 27° |
| 2026-05-07 03:45 | 39.74853 | -75.62391 | 8934 ft | 246 kts | 28° |
| 2026-05-07 03:46 | 39.76269 | -75.61137 | 8942 ft | 247 kts | 28° |
| 2026-05-07 03:46 | 39.77667 | -75.59897 | 8937 ft | 247 kts | 28° |
| 2026-05-07 03:46 | 39.79084 | -75.58639 | 8937 ft | 246 kts | 28° |
| 2026-05-07 03:46 | 39.80494 | -75.57376 | 8945 ft | 247 kts | 28° |
| 2026-05-07 03:47 | 39.81902 | -75.56112 | 8940 ft | 246 kts | 27° |
| 2026-05-07 03:47 | 39.83312 | -75.54860 | 8951 ft | 245 kts | 28° |
| 2026-05-07 03:47 | 39.84723 | -75.53611 | 8953 ft | 245 kts | 27° |
| 2026-05-07 03:47 | 39.86135 | -75.52365 | 8942 ft | 246 kts | 28° |
| 2026-05-07 03:48 | 39.87546 | -75.51114 | 8944 ft | 246 kts | 28° |
| 2026-05-07 03:48 | 39.88963 | -75.49854 | 8939 ft | 246 kts | 28° |
| 2026-05-07 03:48 | 39.90376 | -75.48592 | 8938 ft | 246 kts | 28° |
| 2026-05-07 03:48 | 39.91778 | -75.47331 | 8941 ft | 245 kts | 28° |
| 2026-05-07 03:49 | 39.93186 | -75.46062 | 8931 ft | 247 kts | 28° |
| 2026-05-07 03:49 | 39.94602 | -75.44798 | 8937 ft | 246 kts | 28° |
| 2026-05-07 03:49 | 39.96016 | -75.43543 | 8939 ft | 246 kts | 28° |
| 2026-05-07 03:49 | 39.97429 | -75.42282 | 8932 ft | 247 kts | 28° |
| 2026-05-07 03:50 | 39.98852 | -75.40999 | 8949 ft | 250 kts | 28° |
| 2026-05-07 03:50 | 40.00283 | -75.39694 | 8948 ft | 252 kts | 27° |
| 2026-05-07 03:50 | 40.01722 | -75.38394 | 8937 ft | 252 kts | 27° |
| 2026-05-07 03:50 | 40.03169 | -75.37106 | 8938 ft | 251 kts | 27° |
| 2026-05-07 03:51 | 40.04615 | -75.35825 | 8949 ft | 252 kts | 27° |
| 2026-05-07 03:51 | 40.06063 | -75.34541 | 8939 ft | 251 kts | 27° |
| 2026-05-07 03:51 | 40.07501 | -75.33250 | 8922 ft | 251 kts | 27° |
| 2026-05-07 03:51 | 40.08940 | -75.31952 | 8946 ft | 251 kts | 27° |
| 2026-05-07 03:52 | 40.10390 | -75.30663 | 8956 ft | 251 kts | 27° |
| 2026-05-07 03:52 | 40.11834 | -75.29384 | 8950 ft | 250 kts | 27° |
| 2026-05-07 03:52 | 40.13271 | -75.28092 | 8945 ft | 250 kts | 27° |
| 2026-05-07 03:52 | 40.14704 | -75.26809 | 8949 ft | 251 kts | 27° |
| 2026-05-07 03:53 | 40.16138 | -75.25502 | 8949 ft | 251 kts | 28° |
| 2026-05-07 03:53 | 40.17569 | -75.24197 | 8955 ft | 251 kts | 27° |
| 2026-05-07 03:53 | 40.19010 | -75.22886 | 8959 ft | 254 kts | 27° |
| 2026-05-07 03:53 | 40.20469 | -75.21563 | 8938 ft | 255 kts | 28° |
| 2026-05-07 03:54 | 40.21928 | -75.20254 | 8947 ft | 254 kts | 27° |
| 2026-05-07 03:54 | 40.23386 | -75.18949 | 8958 ft | 253 kts | 26° |
| 2026-05-07 03:54 | 40.24840 | -75.17639 | 8918 ft | 254 kts | 27° |
| 2026-05-07 03:54 | 40.26292 | -75.16325 | 8919 ft | 253 kts | 27° |
| 2026-05-07 03:55 | 40.27743 | -75.15016 | 8922 ft | 253 kts | 27° |
| 2026-05-07 03:55 | 40.29196 | -75.13710 | 8921 ft | 253 kts | 27° |
| 2026-05-07 03:55 | 40.30623 | -75.12372 | 8896 ft | 251 kts | 34° |
| 2026-05-07 03:55 | 40.31696 | -75.10584 | 8957 ft | 254 kts | 48° |
| 2026-05-07 03:56 | 40.32965 | -75.08955 | 8939 ft | 256 kts | 27° |
| 2026-05-07 03:56 | 40.34553 | -75.08090 | 8920 ft | 247 kts | 7° |
| 2026-05-07 03:56 | 40.36211 | -75.07611 | 8917 ft | 242 kts | 0° |
| 2026-05-07 03:56 | 40.37866 | -75.07363 | 8960 ft | 239 kts | 346° |
| 2026-05-07 03:57 | 40.39417 | -75.07938 | 8939 ft | 227 kts | 320° |
| 2026-05-07 03:57 | 40.40565 | -75.09222 | 8901 ft | 210 kts | 299° |
| 2026-05-07 03:57 | 40.41430 | -75.10687 | 8905 ft | 197 kts | 298° |
| 2026-05-07 03:57 | 40.42315 | -75.12042 | 8930 ft | 194 kts | 303° |
| 2026-05-07 03:58 | 40.43289 | -75.13285 | 8915 ft | 196 kts | 307° |
| 2026-05-07 03:58 | 40.44344 | -75.14433 | 8918 ft | 197 kts | 310° |
| 2026-05-07 03:58 | 40.45496 | -75.15407 | 8943 ft | 197 kts | 324° |
| 2026-05-07 03:58 | 40.46844 | -75.15934 | 8941 ft | 208 kts | 339° |
| 2026-05-07 03:59 | 40.48316 | -75.16108 | 8974 ft | 216 kts | 342° |
| 2026-05-07 03:59 | 40.49815 | -75.16376 | 8957 ft | 218 kts | 336° |
| 2026-05-07 03:59 | 40.51280 | -75.16871 | 8939 ft | 217 kts | 330° |
| 2026-05-07 03:59 | 40.52703 | -75.17478 | 8939 ft | 214 kts | 329° |
| 2026-05-07 04:00 | 40.54111 | -75.18112 | 8938 ft | 214 kts | 327° |
| 2026-05-07 04:00 | 40.55510 | -75.18771 | 8932 ft | 213 kts | 332° |
| 2026-05-07 04:00 | 40.56989 | -75.19021 | 8923 ft | 216 kts | 349° |
| 2026-05-07 04:00 | 40.58491 | -75.18698 | 8917 ft | 225 kts | 9° |
| 2026-05-07 04:01 | 40.59835 | -75.17565 | 8955 ft | 236 kts | 34° |
| 2026-05-07 04:01 | 40.61194 | -75.16230 | 8933 ft | 251 kts | 21° |
| 2026-05-07 04:01 | 40.62812 | -75.15395 | 8947 ft | 247 kts | 5° |
| 2026-05-07 04:01 | 40.64477 | -75.14963 | 8922 ft | 243 kts | 359° |
| 2026-05-07 04:02 | 40.66164 | -75.14644 | 8694 ft | 244 kts | 358° |
| 2026-05-07 04:02 | 40.67853 | -75.14369 | 8501 ft | 249 kts | 357° |
| 2026-05-07 04:02 | 40.69592 | -75.14085 | 8281 ft | 253 kts | 357° |
| 2026-05-07 04:02 | 40.71335 | -75.13803 | 8097 ft | 251 kts | 356° |
| 2026-05-07 04:03 | 40.73069 | -75.13554 | 7923 ft | 250 kts | 355° |
| 2026-05-07 04:03 | 40.74790 | -75.13318 | 7728 ft | 249 kts | 356° |
| 2026-05-07 04:03 | 40.76500 | -75.13064 | 7491 ft | 246 kts | 356° |
| 2026-05-07 04:03 | 40.78188 | -75.12791 | 7226 ft | 244 kts | 357° |
| 2026-05-07 04:04 | 40.79871 | -75.12507 | 6968 ft | 243 kts | 358° |
| 2026-05-07 04:04 | 40.81533 | -75.12205 | 6760 ft | 246 kts | 359° |
| 2026-05-07 04:04 | 40.83226 | -75.11894 | 6525 ft | 245 kts | 359° |
| 2026-05-07 04:04 | 40.84930 | -75.11562 | 6280 ft | 244 kts | 359° |
| 2026-05-07 04:05 | 40.86581 | -75.11284 | 6006 ft | 240 kts | 360° |
| 2026-05-07 04:05 | 40.88146 | -75.10469 | 5639 ft | 247 kts | 26° |
| 2026-05-07 04:05 | 40.89486 | -75.08969 | 5322 ft | 255 kts | 44° |
| 2026-05-07 04:05 | 40.90429 | -75.07053 | 5363 ft | 244 kts | 62° |
| 2026-05-07 04:06 | 40.91050 | -75.04975 | 5361 ft | 244 kts | 67° |
| 2026-05-07 04:06 | 40.91725 | -75.02909 | 5355 ft | 245 kts | 63° |
| 2026-05-07 04:06 | 40.92523 | -75.00926 | 5365 ft | 245 kts | 57° |
| 2026-05-07 04:06 | 40.93436 | -74.99029 | 5370 ft | 244 kts | 52° |
| 2026-05-07 04:07 | 40.94416 | -74.97211 | 5369 ft | 242 kts | 51° |
| 2026-05-07 04:07 | 40.95396 | -74.95404 | 5370 ft | 242 kts | 51° |
| 2026-05-07 04:07 | 40.96366 | -74.93577 | 5369 ft | 243 kts | 52° |
| 2026-05-07 04:07 | 40.97284 | -74.91707 | 5359 ft | 243 kts | 60° |
| 2026-05-07 04:08 | 40.97905 | -74.89630 | 5369 ft | 244 kts | 69° |
| 2026-05-07 04:08 | 40.98520 | -74.87536 | 5382 ft | 244 kts | 65° |
| 2026-05-07 04:08 | 40.99231 | -74.85514 | 5380 ft | 242 kts | 63° |
| 2026-05-07 04:08 | 40.99972 | -74.83513 | 5369 ft | 243 kts | 62° |
| 2026-05-07 04:09 | 41.00709 | -74.81504 | 5374 ft | 242 kts | 63° |
| 2026-05-07 04:09 | 41.01430 | -74.79495 | 5377 ft | 241 kts | 64° |
| 2026-05-07 04:09 | 41.02139 | -74.77484 | 5422 ft | 242 kts | 64° |
| 2026-05-07 04:09 | 41.02853 | -74.75460 | 5505 ft | 243 kts | 64° |
| 2026-05-07 04:10 | 41.03562 | -74.73428 | 5594 ft | 243 kts | 64° |
| 2026-05-07 04:10 | 41.04284 | -74.71381 | 5565 ft | 248 kts | 64° |
| 2026-05-07 04:10 | 41.05018 | -74.69304 | 5552 ft | 250 kts | 64° |
| 2026-05-07 04:10 | 41.05755 | -74.67212 | 5554 ft | 251 kts | 64° |
| 2026-05-07 04:11 | 41.06490 | -74.65110 | 5561 ft | 252 kts | 64° |
| 2026-05-07 04:11 | 41.06981 | -74.63718 | 5558 ft | 252 kts | 64° |
| 2026-05-07 04:11 | 41.07723 | -74.61616 | 5558 ft | 252 kts | 64° |
| 2026-05-07 04:11 | 41.08462 | -74.59505 | 5560 ft | 254 kts | 64° |
| 2026-05-07 04:12 | 41.09208 | -74.57384 | 5560 ft | 254 kts | 64° |
| 2026-05-07 04:12 | 41.09947 | -74.55259 | 5550 ft | 253 kts | 64° |
| 2026-05-07 04:12 | 41.10684 | -74.53140 | 5559 ft | 254 kts | 64° |
| 2026-05-07 04:12 | 41.11434 | -74.51022 | 5561 ft | 254 kts | 64° |
| 2026-05-07 04:13 | 41.12182 | -74.48894 | 5556 ft | 254 kts | 64° |
| 2026-05-07 04:13 | 41.12914 | -74.46763 | 5555 ft | 255 kts | 64° |
| 2026-05-07 04:13 | 41.13652 | -74.44624 | 5568 ft | 255 kts | 64° |
| 2026-05-07 04:13 | 41.14410 | -74.42499 | 5560 ft | 255 kts | 64° |
| 2026-05-07 04:14 | 41.15155 | -74.40367 | 5555 ft | 256 kts | 64° |
| 2026-05-07 04:14 | 41.15900 | -74.38202 | 5442 ft | 261 kts | 64° |
| 2026-05-07 04:14 | 41.16640 | -74.36055 | 5343 ft | 250 kts | 64° |
| 2026-05-07 04:14 | 41.17467 | -74.34084 | 5152 ft | 240 kts | 48° |
| 2026-05-07 04:15 | 41.18593 | -74.32542 | 4985 ft | 231 kts | 49° |
| 2026-05-07 04:15 | 41.19313 | -74.30659 | 4804 ft | 231 kts | 75° |
| 2026-05-07 04:15 | 41.19311 | -74.28552 | 4627 ft | 229 kts | 105° |
| 2026-05-07 04:15 | 41.18612 | -74.26712 | 4497 ft | 221 kts | 134° |
| 2026-05-07 04:16 | 41.17398 | -74.25547 | 4466 ft | 215 kts | 164° |
| 2026-05-07 04:16 | 41.15967 | -74.25180 | 4407 ft | 206 kts | 179° |
| 2026-05-07 04:16 | 41.14567 | -74.24791 | 4182 ft | 208 kts | 166° |
| 2026-05-07 04:16 | 41.13310 | -74.23783 | 3918 ft | 217 kts | 139° |
| 2026-05-07 04:17 | 41.12529 | -74.22059 | 3710 ft | 221 kts | 110° |
| 2026-05-07 04:17 | 41.12272 | -74.20056 | 3570 ft | 218 kts | 101° |
| 2026-05-07 04:17 | 41.11731 | -74.18231 | 3435 ft | 211 kts | 128° |
| 2026-05-07 04:17 | 41.11066 | -74.16542 | 3269 ft | 207 kts | 106° |
| 2026-05-07 04:18 | 41.10739 | -74.14673 | 3121 ft | 210 kts | 110° |
| 2026-05-07 04:18 | 41.10049 | -74.12964 | 2994 ft | 210 kts | 129° |
| 2026-05-07 04:18 | 41.09017 | -74.11632 | 2887 ft | 204 kts | 148° |
| 2026-05-07 04:18 | 41.07875 | -74.10585 | 2736 ft | 197 kts | 149° |
| 2026-05-07 04:19 | 41.06756 | -74.09482 | 2365 ft | 205 kts | 150° |
| 2026-05-07 04:19 | 41.05674 | -74.08212 | 2005 ft | 210 kts | 138° |
| 2026-05-07 04:19 | 41.04695 | -74.06836 | 1945 ft | 199 kts | 139° |
| 2026-05-07 04:19 | 41.03684 | -74.05680 | 1998 ft | 187 kts | 153° |
| 2026-05-07 04:20 | 41.02583 | -74.04865 | 1980 ft | 177 kts | 163° |
| 2026-05-07 04:20 | 41.01387 | -74.04507 | 1814 ft | 177 kts | 185° |
| 2026-05-07 04:20 | 41.00176 | -74.04620 | 1616 ft | 176 kts | 192° |
| 2026-05-07 04:21 | 40.97854 | -74.04847 | 1512 ft | 162 kts | 191° |
| 2026-05-07 04:21 | 40.96747 | -74.04952 | 1519 ft | 155 kts | 191° |
| 2026-05-07 04:21 | 40.95697 | -74.05039 | 1519 ft | 147 kts | 192° |
| 2026-05-07 04:21 | 40.94695 | -74.05156 | 1520 ft | 142 kts | 193° |
| 2026-05-07 04:22 | 40.93729 | -74.05260 | 1522 ft | 136 kts | 193° |
| 2026-05-07 04:22 | 40.92804 | -74.05357 | 1532 ft | 131 kts | 194° |
| 2026-05-07 04:22 | 40.91904 | -74.05439 | 1533 ft | 129 kts | 191° |
| 2026-05-07 04:22 | 40.91015 | -74.05451 | 1525 ft | 127 kts | 184° |
| 2026-05-07 04:23 | 40.90138 | -74.05437 | 1357 ft | 123 kts | 197° |
| 2026-05-07 04:23 | 40.89322 | -74.05631 | 1070 ft | 116 kts | 193° |
| 2026-05-07 04:23 | 40.88533 | -74.05689 | 832 ft | 108 kts | 187° |
| 2026-05-07 04:23 | 40.87792 | -74.05713 | 611 ft | 106 kts | 188° |
| 2026-05-07 04:24 | 40.87073 | -74.05803 | 405 ft | 103 kts | 186° |
| 2026-05-07 04:24 | 40.86379 | -74.05849 | 187 ft | 97 kts | 186° |
| 2026-05-07 04:24 | 40.85742 | -74.05901 | 35 ft | 87 kts | 185° |
| 2026-05-07 04:24 | 40.85201 | -74.05936 | 14 ft | 69 kts | 186° |
| 2026-05-07 04:25 | 40.84762 | -74.05978 | 10 ft | 62 kts | 186° |
| 2026-05-07 04:25 | 40.84502 | -74.05993 | 10 ft | 34 kts | 182° |
| 2026-05-07 04:25 | 40.84376 | -74.06001 | 10 ft | 10 kts | 188° |
| 2026-05-07 04:25 | 40.84301 | -74.06064 | 10 ft | 15 kts | 227° |
| 2026-05-07 04:26 | 40.84275 | -74.06101 | 10 ft | 1 kts | 227° |
| 2026-05-07 04:27 | 40.84256 | -74.06128 | 10 ft | 8 kts | 227° |
| 2026-05-07 04:27 | 40.84240 | -74.06217 | 10 ft | 11 kts | 274° |
| 2026-05-07 04:27 | 40.84244 | -74.06293 | 17 ft | 5 kts | 281° |
| 2026-05-07 04:27 | 40.84254 | -74.06333 | 2 ft | 1 kts | 304° |
| 2026-05-07 04:28 | 40.84260 | -74.06340 | -1 ft | 3 kts | 340° |
| 2026-05-07 04:28 | 40.84274 | -74.06337 | 7 ft | 0 kts | 7° |